Hauptseite
METAR-TAF:

METAR-TAF

Flughäfen :

Flughafen Aktio

Preveza, Griechenland

Breite: 38-37N, Länge: 020-46E, Höhe: 4 m

Beobachtung

Neuester Wetterbericht von vor 12 Minuten, um 08:20 UTC
Wind 10 kt aus Nordost
Temperatur 10°C
Luftfeuchtigkeit 62%
Luftdruck 1032 hPa
Sichtweite 10 km oder mehr
Leicht bewölkt in der Höhe von 2500 ft

METAR: LGPZ 240820Z 05010KT 9999 FEW025 10/03 Q1032

Zeit: 10:32 (08:32 UTC)

Prognose

Neuester Wetterbericht von vor 3 Stunden und 32 Minuten, um 05:00 UTC
Gültige Prognose vom 24 um 06 UTC bis 25 um 06 UTC
Wind 12 kt aus Ost/Nordost
Sichtweite 10 km oder mehr
Aufgelockert bewölkt in der Höhe von 2000 ft

TAF: LGPZ 240500Z 2406/2506 07012KT 9999 SCT020

Wetterbeobachtungen und Prognosen von mehr als 4000 Flughäfen (METAR und TAF Bericht).

Die verfügbaren Stationen werden durch gelbe und rote Markierungen auf der Karte dargestellt.

Führen Sie die Maus auf sie, um den Namen der Station zu sehen.

Darauf klicken, um die Beobachtung von Wetterbeobachtungen und Prognosen zu sehen.

Um die Karte zu ändern : klicken Sie auf den grünen Tasten mit einem schwarzen Kreuz Zum Vergrößern, auf den grünen Button mit einem Gedankenstrich zu verkleinern, oder auf die grünen Pfeile für benachbarte Karten.


METAR-TAF: